Time;durP1;ratioP1;P1;durP2;ratioP2;P2;SDS_P1;SDS_P2;PMS_P1;PMS_P2;Temp;Humidity;BMP_temperature;BMP_pressure;BME280_temperature;BME280_humidity;BME280_pressure;Samples;Min_cycle;Max_cycle;Signal;HPM_P1;HPM_P2
2022/06/10 00:01:04;;;;;;;9.25;3.95;;;;;;;12.99;95.50;101972.88;5118239;28;20035;-57
2022/06/10 00:03:30;;;;;;;9.23;4.10;;;;;;;12.95;95.48;101965.91;5118145;28;20111;-57
2022/06/10 00:06:01;;;;;;;9.15;4.15;;;;;;;13.03;95.32;101965.88;5118061;28;20060;-57
2022/06/10 00:08:30;;;;;;;12.15;4.10;;;;;;;12.99;95.23;101964.16;5118034;28;20639;-58
2022/06/10 00:10:58;;;;;;;10.13;4.20;;;;;;;12.97;95.32;101960.66;5118094;28;20032;-57
2022/06/10 00:13:26;;;;;;;10.25;4.20;;;;;;;12.94;95.62;101971.19;5118215;28;20417;-57
2022/06/10 00:15:53;;;;;;;12.00;4.40;;;;;;;12.98;95.36;101965.03;5117945;28;20027;-58
2022/06/10 00:18:19;;;;;;;13.73;4.90;;;;;;;12.96;95.20;101970.31;5117973;28;20027;-57
2022/06/10 00:20:45;;;;;;;11.70;4.68;;;;;;;12.95;95.93;101965.03;5118091;28;20415;-58
2022/06/10 00:23:10;;;;;;;13.45;4.28;;;;;;;12.95;96.22;101965.03;5117960;28;20038;-59
2022/06/10 00:25:36;;;;;;;9.40;4.82;;;;;;;12.99;96.60;101967.63;5118007;28;20416;-58
2022/06/10 00:28:03;;;;;;;12.25;5.35;;;;;;;13.02;95.79;101965.00;5117984;28;20418;-57
2022/06/10 00:30:30;;;;;;;11.48;4.68;;;;;;;13.00;96.41;101958.00;5117686;28;20338;-58
2022/06/10 00:32:57;;;;;;;10.30;4.90;;;;;;;13.06;96.51;101963.22;5117713;28;20027;-58
2022/06/10 00:35:22;;;;;;;12.38;4.50;;;;;;;13.12;95.89;101964.06;5117199;28;20441;-58
2022/06/10 00:37:48;;;;;;;12.75;5.00;;;;;;;13.12;95.06;101958.81;5117723;28;20039;-58
2022/06/10 00:40:17;;;;;;;10.43;4.50;;;;;;;13.14;95.20;101954.44;5117836;28;20039;-58
2022/06/10 00:42:43;;;;;;;11.10;4.60;;;;;;;13.21;94.55;101960.53;5117533;28;20139;-57
2022/06/10 00:45:47;;;;;;;14.65;4.43;;;;;;;13.23;93.95;101954.38;5117552;28;20451;-58
2022/06/10 00:48:19;;;;;;;12.35;4.65;;;;;;;13.27;94.44;101957.00;5117253;28;20034;-58
2022/06/10 00:50:45;;;;;;;12.20;4.18;;;;;;;13.26;95.32;101956.13;5117771;28;20031;-57
2022/06/10 00:53:13;;;;;;;11.88;4.32;;;;;;;13.25;93.53;101957.00;5117294;28;20042;-57
2022/06/10 00:55:39;;;;;;;9.75;3.80;;;;;;;13.27;92.43;101947.38;5117115;28;21134;-57
2022/06/10 00:58:23;;;;;;;11.75;4.43;;;;;;;13.38;93.07;101942.00;5117059;28;20419;-57
2022/06/10 01:00:49;;;;;;;14.02;4.10;;;;;;;13.40;92.16;101938.50;5117281;28;20070;-58
2022/06/10 01:03:14;;;;;;;10.52;3.80;;;;;;;13.43;92.72;101935.84;5117063;28;20036;-57
2022/06/10 01:05:39;;;;;;;11.88;4.10;;;;;;;13.47;91.48;101944.59;5117055;28;20028;-58
2022/06/10 01:08:10;;;;;;;10.60;3.83;;;;;;;13.51;90.73;101946.28;5116996;28;20039;-57
2022/06/10 01:11:30;;;;;;;12.73;3.90;;;;;;;13.59;90.86;101948.00;5116964;28;20023;-57
2022/06/10 01:14:14;;;;;;;11.73;4.05;;;;;;;13.62;90.54;101944.47;5060650;28;20078;-57
2022/06/10 01:16:48;;;;;;;13.70;3.67;;;;;;;13.63;89.73;101948.84;5116795;28;20434;-57
2022/06/10 01:19:47;;;;;;;11.98;3.65;;;;;;;13.66;90.66;101946.19;5116725;28;20414;-57
2022/06/10 01:22:47;;;;;;;10.10;3.50;;;;;;;13.69;90.16;101948.78;5116831;28;20115;-57
2022/06/10 01:25:37;;;;;;;12.95;4.13;;;;;;;13.71;90.52;101946.13;5116452;28;20439;-57
2022/06/10 01:28:20;;;;;;;12.77;3.75;;;;;;;13.74;89.90;101948.75;5116654;28;20028;-57
2022/06/10 01:31:07;;;;;;;10.98;3.47;;;;;;;13.75;89.47;101947.84;5116498;28;20039;-57
2022/06/10 01:33:48;;;;;;;7.82;3.15;;;;;;;13.76;89.13;101953.09;5116377;28;20028;-58
2022/06/10 01:36:16;;;;;;;10.05;3.60;;;;;;;13.76;88.51;101941.72;5116654;28;20112;-58
2022/06/10 01:38:50;;;;;;;10.23;3.13;;;;;;;13.77;89.34;101948.72;5116450;28;20042;-58
2022/06/10 01:41:31;;;;;;;12.27;3.38;;;;;;;13.83;88.98;101951.31;5116220;28;20426;-57
2022/06/10 01:44:14;;;;;;;11.57;3.30;;;;;;;13.85;88.73;101945.13;5116213;28;20028;-57
2022/06/10 01:46:55;;;;;;;8.73;3.13;;;;;;;13.83;88.81;101948.66;5115642;28;20052;-58
2022/06/10 01:49:26;;;;;;;9.25;3.13;;;;;;;13.84;89.83;101953.06;5116239;28;20088;-57
2022/06/10 01:52:13;;;;;;;8.13;3.05;;;;;;;13.82;88.73;101949.56;5116247;28;20151;-58
2022/06/10 01:55:02;;;;;;;11.10;3.22;;;;;;;13.87;89.65;101955.63;5116065;28;20111;-57
2022/06/10 01:57:53;;;;;;;7.82;2.80;;;;;;;13.91;88.47;101946.81;5116541;28;20088;-57
2022/06/10 02:00:23;;;;;;;11.93;3.10;;;;;;;13.89;89.13;101951.22;5115728;28;20118;-58
2022/06/10 02:02:56;;;;;;;13.07;3.65;;;;;;;13.94;88.53;101945.03;5115828;28;20028;-56
2022/06/10 02:05:24;;;;;;;8.27;2.92;;;;;;;13.91;88.86;101946.81;5116217;28;20031;-58
2022/06/10 02:07:58;;;;;;;7.18;2.95;;;;;;;13.92;88.26;101948.56;5115734;28;20138;-57
2022/06/10 02:10:32;;;;;;;13.27;3.22;;;;;;;13.96;88.21;101946.78;5115945;28;20114;-57
2022/06/10 02:13:04;;;;;;;10.85;3.20;;;;;;;13.96;88.87;101955.56;5115700;28;20028;-57
2022/06/10 02:15:34;;;;;;;9.30;3.00;;;;;;;13.96;89.87;101958.19;5115796;28;20032;-57
2022/06/10 02:18:09;;;;;;;9.88;3.15;;;;;;;13.99;89.60;101949.41;5115931;28;20067;-58
2022/06/10 02:20:39;;;;;;;10.27;2.72;;;;;;;14.01;88.90;101945.00;5116023;28;20028;-58
2022/06/10 02:23:07;;;;;;;9.63;3.00;;;;;;;13.98;89.13;101951.16;5115720;28;20110;-58
2022/06/10 02:25:44;;;;;;;7.60;2.83;;;;;;;14.03;88.85;101954.59;5115583;28;20092;-58
2022/06/10 02:28:15;;;;;;;9.82;3.17;;;;;;;14.03;88.02;101958.97;5115627;28;20436;-57
2022/06/10 02:30:53;;;;;;;9.83;3.30;;;;;;;14.05;88.43;101951.94;5115696;28;20423;-58
2022/06/10 02:33:18;;;;;;;14.10;3.13;;;;;;;14.04;88.50;101958.97;5115692;28;20036;-58
2022/06/10 02:35:48;;;;;;;9.98;3.08;;;;;;;14.07;88.11;101963.34;5115655;28;20126;-59
2022/06/10 02:38:40;;;;;;;7.13;2.67;;;;;;;14.09;88.48;101962.44;5115197;28;20450;-57
2022/06/10 02:41:55;;;;;;;11.27;2.92;;;;;;;14.09;88.46;101967.69;5115499;28;20035;-57
2022/06/10 02:44:30;;;;;;;12.70;3.03;;;;;;;14.10;88.08;101968.56;5116021;28;20023;-58
2022/06/10 02:47:18;;;;;;;10.82;3.30;;;;;;;14.11;87.89;101975.59;5115194;28;20088;-57
2022/06/10 02:49:43;;;;;;;15.38;2.97;;;;;;;14.12;88.34;101975.56;5115410;28;20038;-58
2022/06/10 02:52:13;;;;;;;9.98;2.70;;;;;;;14.12;88.56;101975.56;5115174;28;20028;-58
2022/06/10 02:54:41;;;;;;;10.60;3.35;;;;;;;14.15;88.09;101975.56;5114913;28;20031;-57
2022/06/10 02:57:15;;;;;;;10.80;2.78;;;;;;;14.16;88.02;101969.41;5115205;28;20028;-57
2022/06/10 03:02:30;;;;;;;11.43;2.72;;;;;;;14.12;88.15;101967.69;5119599;28;20055;-58
2022/06/10 03:05:04;;;;;;;9.88;2.85;;;;;;;14.16;88.38;101965.91;5119570;28;20032;-58
2022/06/10 03:07:43;;;;;;;9.27;2.90;;;;;;;14.12;88.02;101959.78;5119154;28;20050;-57
2022/06/10 03:10:21;;;;;;;10.55;2.70;;;;;;;14.14;88.27;101976.44;5119408;28;20319;-58
2022/06/10 03:13:09;;;;;;;8.65;3.20;;;;;;;14.16;89.07;101977.28;5119343;28;20038;-57
2022/06/10 03:16:05;;;;;;;9.27;3.00;;;;;;;14.17;88.49;101979.03;5119273;28;20346;-58
2022/06/10 03:18:57;;;;;;;8.63;2.80;;;;;;;14.19;88.84;101976.41;5119288;28;20402;-57
2022/06/10 03:21:56;;;;;;;10.80;3.45;;;;;;;14.19;88.58;101982.53;5119138;28;20396;-57
2022/06/10 03:24:30;;;;;;;6.90;2.92;;;;;;;14.18;89.16;101986.06;5118957;28;20465;-57
2022/06/10 03:27:22;;;;;;;10.80;3.20;;;;;;;14.19;89.23;101985.16;5119285;28;20050;-57
2022/06/10 03:29:58;;;;;;;9.05;3.00;;;;;;;14.20;89.37;101989.50;5118897;28;20474;-58
2022/06/10 03:32:31;;;;;;;10.88;2.67;;;;;;;14.20;89.59;101994.78;5118879;28;20028;-58
2022/06/10 03:35:02;;;;;;;9.77;2.97;;;;;;;14.17;89.08;101984.31;5119217;28;20118;-57
2022/06/10 03:37:30;;;;;;;11.57;3.10;;;;;;;14.19;89.09;101987.81;5118737;28;20023;-58
2022/06/10 03:39:56;;;;;;;10.40;3.03;;;;;;;14.21;89.73;101999.16;5118982;28;20373;-58
2022/06/10 03:42:25;;;;;;;8.98;2.70;;;;;;;14.22;90.02;101995.66;5118628;28;20031;-58
2022/06/10 03:44:54;;;;;;;8.63;3.10;;;;;;;14.23;90.49;101988.63;5118808;28;20035;-59
2022/06/10 03:47:32;;;;;;;9.05;2.88;;;;;;;14.23;89.70;101986.84;5118518;28;20035;-58
2022/06/10 03:50:01;;;;;;;13.18;2.78;;;;;;;14.23;89.66;101976.31;5118598;28;20030;-58
2022/06/10 03:52:32;;;;;;;10.57;3.05;;;;;;;14.22;89.76;101979.84;5100561;28;20041;-58
2022/06/10 03:54:57;;;;;;;8.40;2.90;;;;;;;14.25;90.09;101985.09;5118449;28;20031;-57
2022/06/10 03:57:22;;;;;;;12.35;2.78;;;;;;;14.27;89.57;101992.97;5118571;28;20081;-58
2022/06/10 03:59:48;;;;;;;12.27;2.90;;;;;;;14.23;89.48;101993.88;5118521;28;20028;-58
2022/06/10 04:02:14;;;;;;;11.25;3.08;;;;;;;14.24;89.85;102000.91;5118331;28;20031;-58
2022/06/10 04:04:42;;;;;;;8.82;2.90;;;;;;;14.24;89.53;101993.88;5118357;28;20035;-58
2022/06/10 04:07:09;;;;;;;9.63;3.30;;;;;;;14.25;90.11;101995.63;5118442;28;20111;-58
2022/06/10 04:09:34;;;;;;;9.70;3.15;;;;;;;14.28;90.49;101995.59;5117846;28;20028;-59
2022/06/10 04:11:59;;;;;;;10.32;3.20;;;;;;;14.25;90.27;101995.63;5117483;28;20484;-58
2022/06/10 04:14:25;;;;;;;11.95;3.50;;;;;;;14.34;90.49;101997.31;5117775;28;20032;-58
2022/06/10 04:16:50;;;;;;;11.98;2.78;;;;;;;14.35;90.64;102008.72;5117845;28;20084;-58
2022/06/10 04:19:16;;;;;;;8.18;2.80;;;;;;;14.37;90.52;102001.66;5117845;28;20027;-58
2022/06/10 04:21:42;;;;;;;11.52;2.97;;;;;;;14.40;90.74;102001.59;5118255;28;20028;-58
2022/06/10 04:24:07;;;;;;;8.10;2.78;;;;;;;14.43;91.15;102004.25;5117914;28;20039;-59
2022/06/10 04:26:33;;;;;;;8.68;3.13;;;;;;;14.47;92.13;102016.50;5117847;28;20163;-58
2022/06/10 04:28:58;;;;;;;8.70;3.20;;;;;;;14.47;93.10;102016.50;5117606;28;20031;-58
2022/06/10 04:31:23;;;;;;;18.08;3.65;;;;;;;14.47;94.05;102017.38;5117747;28;20039;-58
2022/06/10 04:33:49;;;;;;;11.77;3.00;;;;;;;14.50;92.38;102013.84;5117883;28;20056;-57
2022/06/10 04:36:17;;;;;;;10.95;3.20;;;;;;;14.51;92.42;102012.94;5117762;28;20046;-58
2022/06/10 04:38:42;;;;;;;8.40;2.90;;;;;;;14.53;93.65;102004.16;5117428;28;20106;-57
2022/06/10 04:41:09;;;;;;;6.25;2.58;;;;;;;14.55;93.77;102006.75;5117252;28;20036;-58
2022/06/10 04:43:35;;;;;;;10.32;3.10;;;;;;;14.56;93.16;102014.63;5117754;28;20032;-58
2022/06/10 04:46:02;;;;;;;12.02;2.95;;;;;;;14.58;92.90;102009.34;5117279;28;20513;-59
2022/06/10 04:48:28;;;;;;;13.10;3.30;;;;;;;14.59;92.43;102009.31;5117363;28;20074;-58
2022/06/10 04:50:53;;;;;;;12.70;2.75;;;;;;;14.61;92.75;102015.47;5117419;28;20063;-57
2022/06/10 04:53:18;;;;;;;12.57;2.90;;;;;;;14.62;92.58;102016.31;5117207;28;20342;-57
2022/06/10 04:55:44;;;;;;;10.18;3.10;;;;;;;14.63;92.01;102015.44;5099437;28;20421;-58
2022/06/10 04:58:10;;;;;;;10.35;2.90;;;;;;;14.64;91.44;102014.56;5117447;28;20093;-58
2022/06/10 05:00:39;;;;;;;10.63;3.00;;;;;;;14.63;91.29;102010.16;5117424;28;20039;-58
2022/06/10 05:03:06;;;;;;;10.80;2.88;;;;;;;14.65;90.86;102008.41;5117065;28;20035;-58
2022/06/10 05:05:32;;;;;;;7.55;3.00;;;;;;;14.69;91.07;102011.88;5117292;28;20032;-58
2022/06/10 05:07:58;;;;;;;12.23;3.13;;;;;;;14.69;90.91;102003.97;5116914;28;20035;-58
2022/06/10 05:10:23;;;;;;;13.55;3.28;;;;;;;14.70;90.30;102006.59;5117143;28;20084;-59
2022/06/10 05:12:50;;;;;;;14.15;3.10;;;;;;;14.73;90.66;102013.56;5117124;28;20122;-58
2022/06/10 05:15:20;;;;;;;14.30;3.97;;;;;;;14.75;91.05;102012.66;5116906;28;20491;-58
2022/06/10 05:17:45;;;;;;;10.77;3.05;;;;;;;14.77;90.43;102004.72;5117085;28;20023;-58
2022/06/10 05:20:16;;;;;;;11.15;3.05;;;;;;;14.82;90.25;102010.81;5117161;28;20115;-56
2022/06/10 05:22:41;;;;;;;12.77;3.58;;;;;;;14.86;89.82;102002.88;5116739;28;20032;-59
2022/06/10 05:25:07;;;;;;;13.07;3.33;;;;;;;14.87;90.55;102003.75;5116585;28;20024;-59
2022/06/10 05:27:32;;;;;;;9.95;3.30;;;;;;;14.76;90.81;101972.25;5116405;28;20446;-61
2022/06/10 05:29:57;;;;;;;14.00;3.33;;;;;;;14.93;89.92;101996.63;5116836;28;20027;-56
2022/06/10 05:32:23;;;;;;;11.05;2.70;;;;;;;14.95;89.90;101994.84;5108516;28;20032;-55
2022/06/10 05:34:48;;;;;;;10.15;3.00;;;;;;;15.02;89.61;101990.38;5096286;28;20028;-56
2022/06/10 05:37:22;;;;;;;8.57;3.17;;;;;;;15.08;89.77;101999.94;5096111;28;20514;-56
2022/06/10 05:39:47;;;;;;;11.00;3.28;;;;;;;15.16;89.86;102000.72;5096754;28;20379;-56
2022/06/10 05:42:13;;;;;;;9.57;3.00;;;;;;;15.25;88.80;102000.56;5095768;28;20168;-57
2022/06/10 05:44:43;;;;;;;11.40;3.05;;;;;;;15.28;88.68;101996.13;5096134;28;20107;-56
2022/06/10 05:47:13;;;;;;;11.23;3.17;;;;;;;15.32;88.87;101999.59;5095852;28;20415;-55
2022/06/10 05:49:41;;;;;;;10.88;2.70;;;;;;;15.35;88.83;101996.06;5095773;28;20028;-56
2022/06/10 05:52:10;;;;;;;12.45;2.42;;;;;;;15.39;88.75;101992.47;5095666;28;20067;-56
2022/06/10 05:54:35;;;;;;;9.40;3.17;;;;;;;15.43;88.64;101996.78;5095580;28;20423;-56
2022/06/10 05:57:01;;;;;;;8.43;2.67;;;;;;;15.50;89.36;101993.19;5095626;28;20035;-56
2022/06/10 05:59:29;;;;;;;9.20;2.70;;;;;;;15.62;88.70;101990.38;5095719;28;20032;-56
2022/06/10 06:01:57;;;;;;;8.15;2.80;;;;;;;15.76;87.45;102001.56;5095730;28;20111;-56
2022/06/10 06:04:23;;;;;;;10.05;2.58;;;;;;;15.82;88.13;101995.34;5095528;28;20063;-56
2022/06/10 06:06:49;;;;;;;11.57;3.20;;;;;;;15.91;87.34;101997.84;5095176;28;20067;-56
2022/06/10 06:09:14;;;;;;;12.27;2.88;;;;;;;15.93;85.68;101990.75;5095537;28;20036;-56
2022/06/10 06:11:41;;;;;;;7.25;2.13;;;;;;;15.97;86.44;102000.34;5095567;28;20438;-57
2022/06/10 06:14:07;;;;;;;9.00;2.40;;;;;;;16.00;85.25;102002.94;5095640;28;20027;-55
2022/06/10 06:16:32;;;;;;;11.00;2.40;;;;;;;15.97;85.99;101997.72;5095062;28;20103;-57
2022/06/10 06:18:57;;;;;;;9.70;2.22;;;;;;;15.99;84.92;102002.06;5095261;28;20036;-57
2022/06/10 06:21:23;;;;;;;9.85;2.20;;;;;;;16.06;85.27;102002.84;5095277;28;20152;-52
2022/06/10 06:23:48;;;;;;;9.30;2.20;;;;;;;16.19;84.39;102007.00;5095148;28;20066;-56
2022/06/10 06:26:17;;;;;;;9.38;2.13;;;;;;;16.24;85.39;102010.44;5100415;28;20052;-58
2022/06/10 06:28:43;;;;;;;5.63;2.08;;;;;;;16.24;84.53;102005.16;5095369;28;20438;-56
2022/06/10 06:31:09;;;;;;;7.82;2.08;;;;;;;16.26;83.78;102021.84;5095136;28;20031;-58
2022/06/10 06:33:35;;;;;;;6.53;1.92;;;;;;;16.25;84.06;102006.91;5096999;28;20485;-59
2022/06/10 06:36:01;;;;;;;9.00;1.90;;;;;;;16.27;84.40;102009.53;5094875;28;20059;-58
2022/06/10 06:38:28;;;;;;;5.25;2.10;;;;;;;16.31;84.07;102009.41;5094899;28;20124;-58
2022/06/10 06:40:53;;;;;;;8.43;2.35;;;;;;;16.38;84.54;102020.75;5095028;28;20032;-58
2022/06/10 06:43:19;;;;;;;7.93;2.40;;;;;;;16.45;84.75;102021.53;5104537;28;20100;-59
2022/06/10 06:45:44;;;;;;;8.05;2.20;;;;;;;16.48;83.93;102021.44;5110364;28;20112;-58
2022/06/10 06:48:11;;;;;;;6.47;2.05;;;;;;;16.53;83.98;102032.78;5100929;28;20047;-59
2022/06/10 06:50:41;;;;;;;7.22;1.90;;;;;;;16.56;83.62;102030.97;5106494;28;20066;-58
2022/06/10 06:53:06;;;;;;;6.60;1.85;;;;;;;16.58;83.33;102034.47;5105763;28;20043;-57
2022/06/10 06:55:33;;;;;;;8.20;1.95;;;;;;;16.61;82.88;102037.06;5103688;28;20030;-57
2022/06/10 06:57:58;;;;;;;8.32;2.10;;;;;;;16.58;82.53;102028.31;5099531;28;20028;-58
2022/06/10 07:00:26;;;;;;;7.78;2.65;;;;;;;16.63;83.21;102037.91;5095028;28;20397;-58
2022/06/10 07:02:51;;;;;;;12.48;2.33;;;;;;;16.67;83.92;102044.00;5094864;28;20032;-59
2022/06/10 07:05:17;;;;;;;7.88;1.80;;;;;;;16.71;82.87;102040.41;5095386;28;20141;-58
2022/06/10 07:07:43;;;;;;;6.93;2.20;;;;;;;16.71;81.39;102035.13;5094796;28;20438;-59
2022/06/10 07:10:12;;;;;;;7.60;2.08;;;;;;;16.74;82.54;102034.19;5094911;28;20108;-57
2022/06/10 07:12:37;;;;;;;4.65;1.65;;;;;;;16.78;82.63;102031.47;5095097;28;20391;-57
2022/06/10 07:15:04;;;;;;;9.43;2.42;;;;;;;16.83;81.62;102031.34;5094772;28;20024;-58
2022/06/10 07:17:30;;;;;;;10.35;2.80;;;;;;;16.87;81.41;102025.09;5094853;28;20032;-59
2022/06/10 07:19:58;;;;;;;5.25;1.73;;;;;;;17.04;81.55;102029.13;5098545;28;20032;-58
2022/06/10 07:22:23;;;;;;;7.32;1.95;;;;;;;17.17;80.18;102021.81;5111303;28;20357;-58
2022/06/10 07:24:49;;;;;;;5.93;1.80;;;;;;;17.40;79.81;102031.88;5088950;28;20036;-58
2022/06/10 07:27:14;;;;;;;5.03;1.60;;;;;;;17.54;77.83;102027.13;5099893;28;20139;-59
2022/06/10 07:29:39;;;;;;;7.55;1.60;;;;;;;17.74;76.90;102039.94;5106237;28;20039;-59
2022/06/10 07:32:05;;;;;;;9.80;1.92;;;;;;;17.78;76.93;102033.66;5113466;28;20449;-57
2022/06/10 07:34:30;;;;;;;5.70;1.80;;;;;;;17.68;77.52;102040.06;5113431;28;20027;-58
2022/06/10 07:36:55;;;;;;;7.18;1.92;;;;;;;17.57;78.95;102042.09;5115029;28;20032;-57
2022/06/10 07:39:21;;;;;;;8.70;1.92;;;;;;;17.51;79.48;102034.28;5114849;28;20466;-59
2022/06/10 07:42:00;;;;;;;7.53;1.60;;;;;;;17.47;79.29;102043.22;5114949;28;20039;-57
2022/06/10 07:44:30;;;;;;;7.85;1.80;;;;;;;17.45;79.09;102045.00;5115054;28;20027;-57
2022/06/10 07:47:01;;;;;;;6.95;1.75;;;;;;;17.42;79.40;102040.66;5117771;28;20028;-59
2022/06/10 07:49:27;;;;;;;6.88;1.67;;;;;;;17.42;78.44;102042.44;5118580;28;20031;-58
2022/06/10 07:51:52;;;;;;;7.03;1.95;;;;;;;17.37;80.15;102031.94;5118294;28;20028;-57
2022/06/10 07:54:17;;;;;;;7.85;1.90;;;;;;;17.37;78.77;102032.81;5118773;28;20124;-57
2022/06/10 07:56:43;;;;;;;6.25;1.70;;;;;;;17.34;78.67;102029.38;5118357;28;20368;-58
2022/06/10 07:59:09;;;;;;;6.22;1.80;;;;;;;17.47;78.90;102033.50;5118855;28;20071;-58
2022/06/10 08:01:35;;;;;;;6.45;1.80;;;;;;;17.63;78.31;102024.28;5118248;28;20039;-57
2022/06/10 08:04:01;;;;;;;6.80;1.58;;;;;;;17.87;77.35;102022.84;5118162;28;20341;-58
2022/06/10 08:06:29;;;;;;;6.78;1.80;;;;;;;18.05;77.43;102025.03;5118148;28;20051;-56
2022/06/10 08:08:54;;;;;;;8.15;1.58;;;;;;;18.21;76.12;102029.91;5118017;28;20460;-59
2022/06/10 08:11:20;;;;;;;6.30;1.55;;;;;;;18.36;74.58;102027.72;5117650;28;20114;-57
2022/06/10 08:13:46;;;;;;;5.40;1.83;;;;;;;18.48;74.14;102036.28;5117550;28;20031;-57
2022/06/10 08:16:13;;;;;;;5.65;1.80;;;;;;;18.49;73.97;102019.47;5117919;28;20032;-58
2022/06/10 08:18:39;;;;;;;6.55;1.70;;;;;;;18.70;73.01;102032.19;5118048;28;20132;-59
2022/06/10 08:23:51;;;;;;;5.28;1.63;;;;;;;18.88;70.94;102042.22;5118175;28;20522;-58
2022/06/10 08:26:16;;;;;;;5.97;1.60;;;;;;;18.93;71.78;102039.44;5117936;28;20048;-58
2022/06/10 08:28:45;;;;;;;6.70;1.70;;;;;;;18.97;71.40;102033.16;5117619;28;20042;-57
2022/06/10 08:31:11;;;;;;;5.53;1.95;;;;;;;19.02;70.59;102037.41;5117831;28;20032;-58
2022/06/10 08:33:37;;;;;;;6.97;2.08;;;;;;;19.00;69.22;102036.59;5118156;28;20440;-58
2022/06/10 08:36:04;;;;;;;7.25;2.13;;;;;;;18.90;70.51;102042.19;5117799;28;20063;-58
2022/06/10 08:38:30;;;;;;;7.30;1.80;;;;;;;18.84;70.10;102037.06;5117606;28;20039;-60
2022/06/10 08:40:58;;;;;;;8.20;2.40;;;;;;;18.81;70.14;102045.13;5117600;28;20024;-58
2022/06/10 08:43:39;;;;;;;7.30;2.22;;;;;;;18.76;70.83;102030.19;5117652;28;20024;-59
2022/06/10 08:46:25;;;;;;;11.02;2.50;;;;;;;18.72;68.94;102040.94;5117349;28;20039;-58
2022/06/10 08:49:02;;;;;;;9.48;2.03;;;;;;;18.74;70.54;102020.53;5117350;28;20031;-56
2022/06/10 08:51:36;;;;;;;10.32;2.40;;;;;;;18.97;70.33;102025.19;5117522;28;20031;-59
2022/06/10 08:54:20;;;;;;;9.10;2.42;;;;;;;19.36;70.16;102023.13;5117031;28;20027;-58
2022/06/10 08:56:52;;;;;;;7.93;2.70;;;;;;;19.58;68.13;102013.56;5116856;28;20031;-59
2022/06/10 08:59:43;;;;;;;9.93;2.35;;;;;;;19.77;68.29;102013.84;5117333;28;20112;-58
2022/06/10 09:02:33;;;;;;;9.18;2.67;;;;;;;19.92;68.59;102004.50;5117597;28;20085;-57
2022/06/10 09:05:13;;;;;;;10.73;2.40;;;;;;;20.22;65.69;102014.09;5117169;28;20078;-59
2022/06/10 09:07:41;;;;;;;10.38;2.60;;;;;;;20.23;64.68;102012.31;5117059;28;20027;-58
2022/06/10 09:10:14;;;;;;;7.60;2.38;;;;;;;20.44;64.22;102009.78;5117249;28;20089;-58
2022/06/10 09:13:10;;;;;;;9.63;2.60;;;;;;;21.33;64.27;102009.97;5116855;28;20031;-59
2022/06/10 09:15:43;;;;;;;7.25;2.30;;;;;;;22.31;60.54;102011.28;5116976;28;20020;-58
2022/06/10 09:18:21;;;;;;;8.52;2.22;;;;;;;23.34;58.35;102011.00;5116774;28;20031;-58
2022/06/10 09:20:57;;;;;;;7.55;1.90;;;;;;;23.59;54.66;102011.56;5116938;28;20073;-58
2022/06/10 09:23:38;;;;;;;8.63;2.15;;;;;;;23.56;55.30;102009.03;5116673;28;20446;-58
2022/06/10 09:26:10;;;;;;;9.63;2.28;;;;;;;24.14;52.80;102012.31;5116836;28;20047;-59
2022/06/10 09:28:36;;;;;;;;;;;;;;;24.79;52.16;102013.34;5117091;28;20025;-60
2022/06/10 09:31:12;;;;;;;6.80;2.10;;;;;;;23.32;53.16;102020.88;5116424;28;20048;-58
2022/06/10 09:33:58;;;;;;;6.78;2.03;;;;;;;22.58;56.86;102026.91;5116757;28;20050;-58
2022/06/10 09:36:37;;;;;;;5.35;2.10;;;;;;;22.12;59.58;102021.88;5116582;28;20043;-59
2022/06/10 09:40:35;;;;;;;8.60;2.17;;;;;;;22.00;60.68;102027.69;5116755;28;20028;-59
2022/06/10 09:42:17;;;;;;;7.18;2.20;;;;;;;22.11;59.94;102022.81;5115844;28;20042;-59
2022/06/10 09:45:15;;;;;;;11.13;2.38;;;;;;;22.07;60.47;102018.53;5116685;28;20027;-58
2022/06/10 09:47:59;;;;;;;8.85;2.30;;;;;;;21.82;61.34;102024.84;5116151;28;20023;-59
2022/06/10 09:50:39;;;;;;;7.25;2.00;;;;;;;21.76;62.68;102030.44;5115976;28;20031;-58
2022/06/10 09:53:13;;;;;;;12.07;2.88;;;;;;;21.68;62.00;102023.69;5116527;28;20035;-58
2022/06/10 09:56:01;;;;;;;9.55;2.72;;;;;;;21.62;62.80;102026.63;5116067;28;20035;-60
2022/06/10 09:58:41;;;;;;;8.48;2.47;;;;;;;21.69;62.60;102022.75;5108779;28;20051;-59
2022/06/10 10:01:29;;;;;;;9.25;2.17;;;;;;;21.75;63.46;102020.72;5115676;28;20461;-58
2022/06/10 10:04:00;;;;;;;7.13;2.63;;;;;;;21.76;63.54;102025.13;5115979;28;20077;-58
2022/06/10 10:06:36;;;;;;;9.98;3.08;;;;;;;21.87;63.96;102022.88;5115823;28;20335;-59
2022/06/10 10:09:10;;;;;;;7.80;2.45;;;;;;;22.11;61.86;102022.81;5115339;28;20429;-59
2022/06/10 10:11:47;;;;;;;9.23;2.70;;;;;;;22.19;60.23;102020.66;5115850;28;20042;-58
2022/06/10 10:14:47;;;;;;;9.75;2.88;;;;;;;22.32;62.42;102024.56;5115327;28;20085;-57
2022/06/10 10:17:40;;;;;;;8.57;2.75;;;;;;;22.28;62.25;102025.59;5115602;28;20081;-58
2022/06/10 10:20:24;;;;;;;9.07;2.90;;;;;;;22.20;61.70;102023.25;5115484;28;20063;-58
2022/06/10 10:22:55;;;;;;;7.30;2.97;;;;;;;22.17;62.59;102022.53;5115112;28;20051;-59
2022/06/10 10:25:24;;;;;;;7.55;2.50;;;;;;;22.16;62.50;102020.81;5115335;28;20066;-59
2022/06/10 10:27:52;;;;;;;7.32;2.55;;;;;;;22.01;63.12;102018.78;5115478;28;20118;-59
2022/06/10 10:30:36;;;;;;;7.22;2.92;;;;;;;21.97;62.63;102018.03;5115612;28;20051;-58
2022/06/10 10:33:05;;;;;;;10.40;3.40;;;;;;;21.80;61.94;102029.41;5115386;28;20097;-58
2022/06/10 10:35:36;;;;;;;7.63;2.60;;;;;;;21.80;64.06;102026.72;5114536;28;20544;-58
2022/06/10 10:38:12;;;;;;;11.23;3.47;;;;;;;21.83;62.27;102021.25;5115083;28;20067;-57
2022/06/10 10:40:41;;;;;;;7.90;3.10;;;;;;;21.80;62.14;102021.41;5115607;28;20039;-59
2022/06/10 10:43:15;;;;;;;9.45;3.20;;;;;;;21.98;63.65;102014.44;5115132;28;20028;-59
2022/06/10 10:45:55;;;;;;;11.80;3.38;;;;;;;22.04;63.30;102011.53;5115167;28;20089;-60
2022/06/10 10:48:30;;;;;;;8.70;3.03;;;;;;;22.10;62.52;102008.59;5115276;28;20127;-58
2022/06/10 10:51:19;;;;;;;9.88;3.20;;;;;;;22.06;63.43;102014.13;5115235;28;20059;-58
2022/06/10 10:53:57;;;;;;;9.52;3.40;;;;;;;22.14;64.20;102012.00;5115206;28;20027;-58
2022/06/10 10:56:31;;;;;;;8.98;3.13;;;;;;;22.21;63.39;102011.66;5115290;28;20092;-59
2022/06/10 10:58:57;;;;;;;8.30;3.50;;;;;;;22.01;62.92;102010.78;5115036;28;20030;-58
2022/06/10 11:01:46;;;;;;;9.77;3.15;;;;;;;21.96;63.06;102005.63;5115293;28;20061;-58
2022/06/10 11:04:24;;;;;;;7.57;3.10;;;;;;;22.01;64.45;102011.66;5115072;28;20027;-58
2022/06/10 11:07:11;;;;;;;15.48;3.40;;;;;;;22.19;64.04;102012.66;5114642;28;20024;-58
2022/06/10 11:09:48;;;;;;;13.52;3.80;;;;;;;22.16;62.88;102012.81;5097926;28;20039;-58
2022/06/10 11:12:19;;;;;;;8.30;3.30;;;;;;;22.37;62.44;101995.84;5115437;28;20039;-60
2022/06/10 11:15:13;;;;;;;10.38;3.50;;;;;;;22.64;62.71;102001.78;5115323;28;20028;-60
2022/06/10 11:17:43;;;;;;;12.18;4.25;;;;;;;22.88;60.05;102007.81;5114577;28;20043;-58
2022/06/10 11:20:14;;;;;;;10.57;3.53;;;;;;;23.10;60.82;102005.00;5117015;28;20028;-60
2022/06/10 11:22:41;;;;;;;8.32;3.22;;;;;;;23.09;59.54;102001.47;5119238;28;20024;-60
2022/06/10 11:25:09;;;;;;;8.73;3.28;;;;;;;22.96;60.89;102003.00;5119051;28;20117;-56
2022/06/10 11:27:39;;;;;;;9.27;3.35;;;;;;;22.82;60.90;102000.09;5118554;28;20039;-57
2022/06/10 11:30:10;;;;;;;9.00;3.42;;;;;;;22.90;61.69;102001.47;5118960;28;20027;-58
2022/06/10 11:32:51;;;;;;;8.93;3.45;;;;;;;22.87;60.72;101998.94;5119092;28;20334;-59
2022/06/10 11:35:31;;;;;;;8.43;3.25;;;;;;;22.95;61.18;102009.25;5118688;28;20026;-58
2022/06/10 11:38:16;;;;;;;8.52;2.67;;;;;;;22.77;61.19;101991.44;5118797;28;20386;-58
2022/06/10 11:40:55;;;;;;;13.25;3.03;;;;;;;23.02;62.56;101994.72;5118685;28;20111;-59
2022/06/10 11:43:27;;;;;;;11.82;3.15;;;;;;;23.31;61.10;101990.63;5118597;28;20031;-58
2022/06/10 11:46:01;;;;;;;8.80;3.22;;;;;;;23.35;60.40;101999.38;5118495;28;20096;-58
2022/06/10 11:48:42;;;;;;;9.60;2.35;;;;;;;23.44;59.33;101986.41;5118428;28;20024;-57
2022/06/10 11:51:18;;;;;;;8.27;2.40;;;;;;;23.55;60.01;101991.28;5118387;28;20058;-57